FKYS/NSI METAR and TAF weather

Enter ICAO airport designator
Station Type Date Time Source
FKYS METAR 2021/09/24 03:00 UTC NOAA

FKYS 240300Z 00000KT 8000 FEW003 BKN006 20/20 Q1017 NOSIG


Station Type Date Time Source
FKYS Decoded METAR 2021/09/24 03:00 UTC NOAA

Yaounde, Cameroon (FKYS) 03-50N 011-31E 760M
Sep 23, 2021 - 11:00 PM EDT / 2021.09.24 0300 UTC
Wind: Calm:0
Visibility: 4 mile(s):0
Sky conditions: mostly cloudy
Temperature: 68 F (20 C)
Dew Point: 68 F (20 C)
Relative Humidity: 100%
Pressure (altimeter): 30.03 in. Hg (1017 hPa)
ob: FKYS 240300Z 00000KT 8000 FEW003 BKN006 20/20 Q1017 NOSIG
cycle: 3

Station Type Date Time Source
FKYS TAF 2021/09/24 00:02 UTC NOAA

TAF FKYS 232300Z 2400/2424 VRB02KT 8000 BKN006
BECMG 2409/2411 BKN016
TEMPO 2414/2419 4000 TSRA BKN010 FEW020CB
BECMG 2420/2422 BKN006

Example: see airport list